Tiempo atmosférico en la estación meteorológica de Baztan, Irurita, Navarra (183 m.)

Fecha
DESCASC
Temp. máxima en grados centígrados (hora)
DESCASC
Temp. mínima en grados centígrados (hora)
DESCASC
Temp. media en grados centígrados
DESCASC
Racha de viento máxima en m/sg (hora)
DESCASC
Velocidad máxima media en intervalos de 10 minutos(hora)
DESCASC
Precipitaciones diarias en mm
DESCASC
Precipitaciones de 00:00 a 06:00 en mm
DESCASC
Precipitaciones de 06:00 a 12:00 en mm
DESCASC
Precipitaciones de 12:00 a 18:00 en mm
DESCASC
Precipitaciones de 18:00 a 24:00 en mm
DESCASC
17-08-2017 -- (--) -- (--) -- -- (--) -- (--) -- 0 -- 0 0
16-08-2017 22.8 (13:50) 17.7 (23:00) 20.3 3.33 (18:50) 1.11 (16:50) 0.2 0.1 0.1 0 0
15-08-2017 25.2 (13:20) 16.9 (00:00) 21.1 4.44 (16:00) 2.22 (09:00) 0.4 0 0.1 0.2 0.1
14-08-2017 36.5 (16:30) 15.4 (02:10) 25.9 8.61 (11:10) 3.33 (11:10) 0 0 0 0 0
13-08-2017 28.3 (15:30) 13.1 (00:00) 20.7 5.83 (19:00) 2.5 (18:00) 0 0 0 0 0
12-08-2017 26.1 (15:20) 10.9 (00:00) 18.5 5.28 (16:40) 2.5 (17:50) 0 0 0 0 0
11-08-2017 21.9 (17:10) 11.4 (00:00) 16.6 6.39 (16:00) 3.33 (16:00) 0.1 0.1 0 0 0
10-08-2017 19.4 (17:40) 13 (00:00) 16.2 6.11 (17:50) 1.94 (17:50) 9.1 2.7 3.5 2.2 0.7
09-08-2017 20.7 (16:50) 13.9 (00:00) 17.3 6.11 (17:10) 2.22 (13:10) 3.4 0 0.1 0.4 2.9
08-08-2017 21.1 (14:10) 14.8 (00:00) 18 5.28 (17:10) 3.06 (16:50) 17.7 14.3 0.9 2.2 0.3
07-08-2017 29.2 (15:30) 14.7 (00:00) 22 5.83 (16:50) 3.06 (17:00) 0.1 0 0 0 0.1
06-08-2017 24.2 (16:50) 15.7 (00:00) 20 5.83 (17:30) 3.06 (17:30) 0 0 0 0 0
05-08-2017 22.5 (11:50) 17.3 (00:00) 19.9 7.78 (15:20) 3.89 (16:10) 0.3 0 0.2 0 0.1
04-08-2017 31.1 (15:20) 16.5 (00:00) 23.8 6.67 (15:50) 3.33 (17:20) 0 0 0 0 0
03-08-2017 30.9 (15:10) 19.5 (00:00) 25.2 5 (16:20) 2.78 (16:00) 0 0 0 0 0
02-08-2017 30.1 (15:50) 14.9 (00:00) 22.5 5 (18:00) 2.22 (18:00) 0 0 0 0 0
01-08-2017 21.8 (16:50) 17.5 (00:00) 19.6 2.78 (16:10) 0.83 (16:10) 0 0 0 0 0
31-07-2017 24.5 (13:50) 16.1 (00:00) 20.3 3.89 (17:20) 2.22 (16:30) 0.3 0.3 0 0 0
30-07-2017 26.8 (13:40) 17.8 (00:00) 22.3 5.83 (17:00) 2.5 (15:00) 0.3 0 0 0 0.3
29-07-2017 30.8 (15:20) 17.5 (00:00) 24.1 4.17 (15:40) 2.5 (15:40) 0 0 0 0 0
28-07-2017 26.5 (15:40) 18.6 (00:00) 22.6 4.72 (15:50) 2.78 (15:50) 0.2 0.1 0 0.1 0
27-07-2017 29 (14:30) 15 (00:00) 22 5.56 (17:20) 2.78 (17:20) 0 0 0 0 0
26-07-2017 26.4 (16:10) 14.9 (00:00) 20.6 3.61 (13:10) 1.39 (15:40) 0 0 0 0 0
25-07-2017 19.5 (18:20) 15.4 (00:00) 17.4 4.17 (18:20) 1.94 (14:20) 2.5 0.5 1.8 0.1 0.1
24-07-2017 21.8 (13:10) 16.4 (00:00) 19.1 7.5 (08:30) 1.39 (13:40) 10.9 0.6 5 3.3 2
23-07-2017 23.3 (16:20) 16.2 (00:00) 19.8 5.56 (18:50) 3.06 (18:50) 0 0 0 0 0
22-07-2017 25.4 (14:20) 14.1 (00:00) 19.8 5.56 (19:00) 2.78 (18:30) 0.8 0 0 0 0.8
21-07-2017 19.8 (14:00) 15.6 (00:00) 17.7 3.61 (12:20) 1.39 (17:00) 3.8 3.8 0 0 0
20-07-2017 19.8 (14:40) 16.3 (00:00) 18 5.56 (19:00) 2.78 (17:20) 1.8 0.2 1.2 0.4 0
19-07-2017 -- (--) -- (--) -- -- (--) -- (--) -- -- -- 0.7 4.9

Gráficas

Temp. máximas Temp. mínimas Temp. medias Precipitaciones Rachas de viento máximas Velocidades máximas media en intervalos de 10 minutos

Datos horarios

Fecha y hora oficial Temperatura (ºC) Velocidad del viento (km/h) Dirección del viento Racha (km/h) Dirección de racha Precipitación (mm) Presión (hPa) Tendencia (hPa) Humedad (%)
2017-08-17 23:00:00 -- 0 Calma -- -- 0 -- -- --
2017-08-17 22:00:00 -- 0 Calma 8 Noroeste 0 -- -- --
2017-08-17 21:00:00 -- 4 Noroeste 9 Sudeste 0 -- -- --
2017-08-17 20:00:00 -- 4 Sur 18 Sudeste 0 -- -- --
2017-08-17 19:00:00 -- 6 Sur 27 Sudeste 0 -- -- --
2017-08-17 18:00:00 -- 16 Este 30 Este 0 -- -- --
2017-08-17 17:00:00 -- 9 Nordeste 23 Este 0 -- -- --
2017-08-17 16:00:00 -- 6 Este 19 Sudeste 0 -- -- --
2017-08-17 15:00:00 -- 5 Norte 13 Norte 0 -- -- --
2017-08-17 14:00:00 -- 5 Este 12 Sudeste 0 -- -- --
2017-08-17 13:00:00 -- 2 Este 9 Este 0 -- -- --
2017-08-17 12:00:00 -- 2 Oeste -- -- -- -- -- --
2017-08-17 11:00:00 -- -- -- -- -- -- -- -- --
2017-08-17 10:00:00 -- 2 Sur 11 Sur 0 -- -- --
2017-08-17 09:00:00 -- 0 Calma -- -- 0 -- -- --
2017-08-17 08:00:00 -- 0 Calma 7 Noroeste 0 -- -- --
2017-08-17 07:00:00 -- 0 Calma -- -- -- -- -- --
2017-08-17 06:00:00 15.7 0 Calma 8 Sudoeste 0 -- -- 90
2017-08-17 05:00:00 16 0 Calma 6 Noroeste 0 -- -- 96
2017-08-17 04:00:00 16 3 Noroeste 6 Norte 0 -- -- 96
2017-08-17 03:00:00 16.2 0 Calma 5 Noroeste 0 -- -- 96
2017-08-17 02:00:00 16.6 0 Calma 6 Norte 0 -- -- 94
2017-08-17 01:00:00 17.4 0 Calma 4 Norte 0 -- -- 92
2017-08-17 00:00:00 17.8 0 Calma 4 Noroeste 0 -- -- 92
2017-08-16 23:00:00 17.8 0 Calma 3 Norte 0 -- -- 90
2017-08-16 22:00:00 18.7 3 Norte 5 Norte 0 -- -- 87
2017-08-16 21:00:00 19.5 0 Calma 4 Noroeste 0 -- -- 85
2017-08-16 20:00:00 20.8 0 Calma 11 Sudeste 0 -- -- 73
2017-08-16 19:00:00 21.9 3 Este 12 Sudeste 0 -- -- 68
2017-08-16 18:00:00 21.5 4 Norte 12 Norte 0 -- -- 70
2017-08-16 17:00:00 21.7 2 Sudeste 10 Sudeste 0 -- -- 75
2017-08-16 16:00:00 21.7 3 Sudeste 8 Sudeste 0 -- -- 73
2017-08-16 15:00:00 21.6 0 Calma 11 Sudoeste 0 -- -- 73
2017-08-16 14:00:00 22.5 0 Calma 7 Noroeste 0 -- -- 71
2017-08-16 13:00:00 21.8 0 Calma 6 Sudeste 0 -- -- 73
2017-08-16 12:00:00 20.5 2 Norte 6 Norte 0 -- -- 79
2017-08-16 11:00:00 20.5 0 Calma 4 Norte 0 -- -- 80
2017-08-16 10:00:00 19.2 0 Calma 3 Noroeste 0 -- -- 88
2017-08-16 09:00:00 18.6 0 Calma 0 Calma 0.1 -- -- 93
2017-08-16 08:00:00 17.9 0 Calma 0 Calma 0 -- -- 95
2017-08-16 07:00:00 17.9 0 Calma 0 Calma 0 -- -- 95
2017-08-16 06:00:00 17.9 0 Calma 3 Noroeste 0 -- -- 94
2017-08-16 05:00:00 17.9 0 Calma 4 Sudoeste 0 -- -- 93
2017-08-16 04:00:00 18 0 Calma 3 Sur 0 -- -- 93
2017-08-16 03:00:00 18.2 0 Calma 8 Sur 0 -- -- 92
2017-08-16 02:00:00 18.6 0 Calma 4 Sudeste 0.1 -- -- 94
2017-08-16 01:00:00 18.9 0 Calma 5 Sur 0 -- -- 94
2017-08-16 00:00:00 19.2 0 Calma 3 Noroeste 0 -- -- 93
2017-08-15 23:00:00 19.3 0 Calma 2 Sudeste 0 -- -- 93
2017-08-15 22:00:00 19.5 0 Calma 2 Noroeste 0 -- -- 91
2017-08-15 21:00:00 19.8 0 Calma 2 Sur 0 -- -- 90
2017-08-15 20:00:00 19.8 0 Calma 4 Sur 0 -- -- 90
2017-08-15 19:00:00 19.9 0 Calma 8 Sudoeste 0.1 -- -- 91
2017-08-15 18:00:00 19.9 4 Sur 11 Nordeste 0.1 -- -- 89
2017-08-15 17:00:00 21 0 Calma 14 Nordeste 0 -- -- 76
2017-08-15 16:00:00 21.4 7 Nordeste 16 Este 0 -- -- 71
2017-08-15 15:00:00 22.4 3 Este 15 Sudeste 0 -- -- 73
2017-08-15 14:00:00 23.7 3 Norte 12 Sudeste 0.1 -- -- 65
2017-08-15 13:00:00 24 4 Este 12 Este 0 -- -- 66
2017-08-15 12:00:00 21.9 0 Calma 13 Noroeste 0 -- -- 79
2017-08-15 11:00:00 20.7 5 Sudeste 14 Sur 0 -- -- 87
2017-08-15 10:00:00 19.4 0 Calma 13 Noroeste 0.1 -- -- 93
2017-08-15 09:00:00 19.1 8 Noroeste 15 Noroeste 0 -- -- 90
2017-08-15 08:00:00 18.2 3 Noroeste 5 Noroeste 0 -- -- 95
2017-08-15 07:00:00 18 2 Nordeste 9 Noroeste 0 -- -- 95
2017-08-15 06:00:00 17.4 0 Calma 7 Nordeste 0 -- -- 95
2017-08-15 05:00:00 17.4 0 Calma 5 Norte 0 -- -- 94
2017-08-15 04:00:00 17.8 0 Calma 5 Sudoeste 0 -- -- 92
2017-08-15 03:00:00 18.5 0 Calma 5 Norte 0 -- -- 91
2017-08-15 02:00:00 19.6 0 Calma 9 Sudeste 0 -- -- 88
2017-08-15 01:00:00 20.2 0 Calma 9 Norte 0 -- -- 85
2017-08-15 00:00:00 21.8 2 Sudoeste 11 Sudoeste 0 -- -- 76
2017-08-14 23:00:00 22.3 0 Calma 9 Sudeste 0 -- -- 75
2017-08-14 22:00:00 24.2 0 Calma 11 Sudeste 0 -- -- 68
2017-08-14 21:00:00 25.1 0 Calma 6 Sudoeste 0 -- -- 65
2017-08-14 20:00:00 27.5 0 Calma 6 Sudoeste 0 -- -- 52
2017-08-14 19:00:00 31.9 0 Calma 12 Sur 0 -- -- 41
2017-08-14 18:00:00 35.5 5 Sudoeste 18 Sudoeste 0 -- -- 26
2017-08-14 17:00:00 36.2 8 Sur 23 Sur 0 -- -- 25
2017-08-14 16:00:00 35.4 5 Noroeste 17 Sur 0 -- -- 27
2017-08-14 15:00:00 34.8 4 Noroeste 13 Norte 0 -- -- 28
2017-08-14 14:00:00 33.6 3 Oeste 18 Este 0 -- -- 30
2017-08-14 13:00:00 32.3 7 Sur 24 Sudoeste 0 -- -- 32
2017-08-14 12:00:00 30.8 4 Sur 31 Sudoeste 0 -- -- 35
2017-08-14 11:00:00 27.8 6 Sur 25 Sudoeste 0 -- -- 40
2017-08-14 10:00:00 21.5 0 Calma 8 Este 0 -- -- 74
2017-08-14 09:00:00 17.8 0 Calma 9 Sur 0 -- -- 89
2017-08-14 08:00:00 15.7 0 Calma 6 Nordeste 0 -- -- 96
2017-08-14 07:00:00 15.9 0 Calma 5 Sur 0 -- -- 96
2017-08-14 06:00:00 16 2 Nordeste 8 Nordeste 0 -- -- 96
2017-08-14 05:00:00 16.5 0 Calma 4 Sudeste 0 -- -- 96
2017-08-14 04:00:00 16.3 0 Calma 3 Este 0 -- -- 96
2017-08-14 03:00:00 15.6 0 Calma 0 Calma 0 -- -- 95
2017-08-14 02:00:00 15.7 0 Calma 3 Noroeste 0 -- -- 95
2017-08-14 01:00:00 16.3 0 Calma 3 Sudoeste 0 -- -- 93
2017-08-14 00:00:00 17.1 0 Calma 0 Calma 0 -- -- 92
2017-08-13 23:00:00 18.2 0 Calma 2 Norte 0 -- -- 91
2017-08-13 22:00:00 20.1 0 Calma 4 Noroeste 0 -- -- 84
2017-08-13 21:00:00 22.5 0 Calma 13 Nordeste 0 -- -- 70
2017-08-13 20:00:00 25 3 Nordeste 18 Este 0 -- -- 56
2017-08-13 19:00:00 25.8 9 Nordeste 21 Este 0 -- -- 52
2017-08-13 18:00:00 26.4 9 Nordeste 19 Norte 0 -- -- 49
2017-08-13 17:00:00 26.7 9 Nordeste 19 Nordeste 0 -- -- 48
2017-08-13 16:00:00 26.9 8 Nordeste 19 Nordeste 0 -- -- 47
2017-08-13 15:00:00 26.7 6 Nordeste 15 Sudeste 0 -- -- 47
2017-08-13 14:00:00 26.4 2 Nordeste 12 Nordeste 0 -- -- 46
2017-08-13 13:00:00 25.1 2 Este 9 Sudeste 0 -- -- 49
2017-08-13 12:00:00 22.6 0 Calma 6 Noroeste 0 -- -- 61
2017-08-13 11:00:00 19.4 3 Norte 5 Noroeste 0 -- -- 75
2017-08-13 10:00:00 15.7 0 Calma 5 Nordeste 0 -- -- 95
2017-08-13 09:00:00 14.7 2 Norte 5 Noroeste 0 -- -- 96
2017-08-13 08:00:00 14.2 0 Calma 3 Noroeste 0 -- -- 96
2017-08-13 07:00:00 13.9 0 Calma 0 Calma 0 -- -- 96
2017-08-13 06:00:00 13.6 0 Calma 2 Norte 0 -- -- 96
2017-08-13 05:00:00 13.3 0 Calma 2 Noroeste 0 -- -- 96
2017-08-13 04:00:00 13.5 0 Calma 3 Noroeste 0 -- -- 96
2017-08-13 03:00:00 13.9 0 Calma 0 Calma 0 -- -- 96
2017-08-13 02:00:00 13.7 0 Calma 3 Noroeste 0 -- -- 95
2017-08-13 01:00:00 14.2 0 Calma 3 Noroeste 0 -- -- 92
2017-08-13 00:00:00 15.1 0 Calma 3 Noroeste 0 -- -- 91
2017-08-12 23:00:00 16.5 0 Calma 8 Sudeste 0 -- -- 88
2017-08-12 22:00:00 18.2 0 Calma 10 Sudeste 0 -- -- 78
2017-08-12 21:00:00 20.1 4 Este 12 Norte 0 -- -- 67
2017-08-12 20:00:00 22.1 7 Norte 13 Nordeste 0 -- -- 57
2017-08-12 19:00:00 23.6 4 Nordeste 15 Norte 0 -- -- 51
2017-08-12 18:00:00 24.3 6 Norte 18 Noroeste 0 -- -- 49
2017-08-12 17:00:00 24.7 7 Norte 19 Nordeste 0 -- -- 47
2017-08-12 16:00:00 25.3 4 Norte 18 Sudeste 0 -- -- 46
2017-08-12 15:00:00 25.7 4 Este 12 Sudeste 0 -- -- 44
2017-08-12 14:00:00 23.9 0 Calma 12 Sudeste 0 -- -- 44
2017-08-12 13:00:00 23.6 3 Sudeste 10 Sur 0 -- -- 49
2017-08-12 12:00:00 20.8 3 Sudoeste 9 Sudoeste 0 -- -- 53
2017-08-12 11:00:00 18.2 0 Calma 6 Sur 0 -- -- 69
2017-08-12 10:00:00 14.2 2 Sudoeste 4 Sudoeste 0 -- -- 89
2017-08-12 09:00:00 12.1 0 Calma 4 Nordeste 0 -- -- 95
2017-08-12 08:00:00 11.5 0 Calma 4 Noroeste 0 -- -- 97
2017-08-12 07:00:00 11.3 0 Calma 4 Nordeste 0 -- -- 97
2017-08-12 06:00:00 11.2 0 Calma 5 Sudeste 0 -- -- 97
2017-08-12 05:00:00 11.3 0 Calma 3 Este 0 -- -- 96
2017-08-12 04:00:00 11.1 0 Calma 3 Nordeste 0 -- -- 96
2017-08-12 03:00:00 10.9 0 Calma 3 Sudeste 0 -- -- 96
2017-08-12 02:00:00 11.4 0 Calma 0 Calma 0 -- -- 95
2017-08-12 01:00:00 11.6 0 Calma 0 Calma 0 -- -- 93
2017-08-12 00:00:00 12.4 0 Calma 0 Calma 0 -- -- 92
2017-08-11 23:00:00 13.4 0 Calma 2 Noroeste 0 -- -- 89
2017-08-11 22:00:00 14.6 0 Calma 8 Sudeste 0 -- -- 83
2017-08-11 21:00:00 17 0 Calma 14 Norte 0 -- -- 68
2017-08-11 20:00:00 18.8 7 Norte 14 Noroeste 0 -- -- 57
2017-08-11 19:00:00 20.1 8 Norte 23 Norte 0 -- -- 52
2017-08-11 18:00:00 20.9 6 Norte 22 Norte 0 -- -- 46
2017-08-11 17:00:00 21.6 4 Noroeste 20 Norte 0 -- -- 48
2017-08-11 16:00:00 19.8 12 Norte 23 Norte 0 -- -- 51
2017-08-11 15:00:00 19.9 3 Norte 21 Nordeste 0 -- -- 52
2017-08-11 14:00:00 19.1 9 Norte 22 Norte 0 -- -- 54
2017-08-11 13:00:00 19.3 3 Noroeste 15 Noroeste 0 -- -- 56
2017-08-11 12:00:00 19 2 Norte 6 Sudeste 0 -- -- 63
2017-08-11 11:00:00 17.3 0 Calma 5 Sudeste 0 -- -- 70
2017-08-11 10:00:00 14.6 0 Calma 5 Sur 0 -- -- 87
2017-08-11 09:00:00 12.6 0 Calma 3 Noroeste 0 -- -- 97
2017-08-11 08:00:00 11.7 0 Calma 4 Norte 0 -- -- 97
2017-08-11 07:00:00 11.7 0 Calma 0 Calma 0 -- -- 97
2017-08-11 06:00:00 11.6 0 Calma 3 Sudoeste 0 -- -- 97
2017-08-11 05:00:00 11.6 0 Calma 3 Sudeste 0 -- -- 97
2017-08-11 04:00:00 12.1 0 Calma 2 Sudeste 0 -- -- 97
2017-08-11 03:00:00 12.1 0 Calma 4 Sudeste 0 -- -- 97
2017-08-11 02:00:00 12.2 0 Calma 3 Sudoeste 0.1 -- -- 97
2017-08-11 01:00:00 12.3 0 Calma 3 Noroeste 0 -- -- 96
2017-08-11 00:00:00 13 0 Calma 5 Sudoeste 0 -- -- 95
2017-08-10 23:00:00 13.2 0 Calma 3 Sudeste 0 -- -- 93
2017-08-10 22:00:00 14.6 0 Calma 4 Sudoeste 0 -- -- 92
2017-08-10 21:00:00 14.5 3 Sudoeste 12 Noroeste 0 -- -- 86
2017-08-10 20:00:00 16.5 0 Calma 10 Noroeste 0 -- -- 80
2017-08-10 19:00:00 17.7 0 Calma 13 Noroeste 0.7 -- -- 78
2017-08-10 18:00:00 18.7 4 Noroeste 22 Noroeste 0 -- -- 70
2017-08-10 17:00:00 18.8 3 Noroeste 10 Sudoeste 0 -- -- 74
2017-08-10 16:00:00 17.3 3 Noroeste 10 Sudeste 0.1 -- -- 82
2017-08-10 15:00:00 17.2 2 Este 14 Nordeste 1.7 -- -- 83
2017-08-10 14:00:00 17.8 2 Nordeste 19 Noroeste 0.4 -- -- 74
2017-08-10 13:00:00 18.1 5 Norte 13 Nordeste 0 -- -- 73
2017-08-10 12:00:00 17 0 Calma 7 Sudoeste 0.6 -- -- 91
2017-08-10 11:00:00 15.3 2 Noroeste 8 Norte 0.8 -- -- 93
2017-08-10 10:00:00 14.8 0 Calma 5 Nordeste 0.9 -- -- 96
2017-08-10 09:00:00 14.3 0 Calma 6 Sur 0.2 -- -- 96
2017-08-10 08:00:00 13.7 0 Calma 4 Noroeste 0.6 -- -- 97
2017-08-10 07:00:00 13.5 0 Calma 5 Sudoeste 0.4 -- -- 97
2017-08-10 06:00:00 13.7 0 Calma 5 Noroeste 0.3 -- -- 97
2017-08-10 05:00:00 13.8 0 Calma 4 Sur 0.8 -- -- 97
2017-08-10 04:00:00 13.8 0 Calma 2 Sur 0.4 -- -- 97
2017-08-10 03:00:00 13.8 0 Calma 6 Sudoeste 0.2 -- -- 97
2017-08-10 02:00:00 13.7 0 Calma 3 Noroeste 0.2 -- -- 96
2017-08-10 01:00:00 13.9 0 Calma 6 Noroeste 0.8 -- -- 96
2017-08-10 00:00:00 14 0 Calma 5 Noroeste 1.2 -- -- 96
2017-08-09 23:00:00 14.1 0 Calma 5 Noroeste 0.7 -- -- 95
2017-08-09 22:00:00 14.2 0 Calma 4 Norte 0 -- -- 92
2017-08-09 21:00:00 15.5 0 Calma 6 Noroeste 0 -- -- 86
2017-08-09 20:00:00 16.6 0 Calma 13 Sudoeste 0 -- -- 79
2017-08-09 19:00:00 16.4 2 Oeste 20 Noroeste 1 -- -- 80
2017-08-09 18:00:00 17.6 3 Oeste 22 Oeste 0.1 -- -- 62
2017-08-09 17:00:00 18.7 5 Oeste 19 Noroeste 0 -- -- 52
2017-08-09 16:00:00 17.7 0 Calma 16 Nordeste 0 -- -- 61
2017-08-09 15:00:00 18.3 4 Nordeste 9 Nordeste 0 -- -- 63
2017-08-09 14:00:00 15.8 3 Sur 21 Noroeste 0.3 -- -- 77
2017-08-09 13:00:00 16.4 3 Norte 10 Norte 0 -- -- 66
2017-08-09 12:00:00 15.9 4 Sudoeste 13 Sudoeste 0 -- -- 77
2017-08-09 11:00:00 16.1 4 Sudoeste 13 Noroeste 0 -- -- 79
2017-08-09 10:00:00 15.5 4 Noroeste 13 Noroeste 0 -- -- 82
2017-08-09 09:00:00 15.2 2 Noroeste 4 Noroeste 0 -- -- 92
2017-08-09 08:00:00 14.5 0 Calma 5 Noroeste 0.1 -- -- 96
2017-08-09 07:00:00 14.2 0 Calma 6 Sudeste 0 -- -- 96
2017-08-09 06:00:00 14.3 2 Noroeste 5 Noroeste 0 -- -- 96
2017-08-09 05:00:00 14.1 0 Calma 3 Sur 0 -- -- 96
2017-08-09 04:00:00 14.1 0 Calma 6 Sur 0 -- -- 96
2017-08-09 03:00:00 14.2 0 Calma 3 Sudoeste 0 -- -- 96
2017-08-09 02:00:00 14.2 0 Calma 3 Sudoeste 0 -- -- 95
2017-08-09 01:00:00 14.4 0 Calma 5 Noroeste 0 -- -- 94
2017-08-09 00:00:00 14.9 0 Calma 10 Sur 0.1 -- -- 93
2017-08-08 23:00:00 15.2 0 Calma 5 Noroeste 0 -- -- 92
2017-08-08 22:00:00 16 2 Noroeste 5 Noroeste 0 -- -- 90
2017-08-08 21:00:00 16.7 0 Calma 3 Sudoeste 0 -- -- 85
2017-08-08 20:00:00 17.7 0 Calma 7 Sur 0 -- -- 74
2017-08-08 19:00:00 17.4 3 Sudoeste 8 Sur 0.2 -- -- 77
2017-08-08 18:00:00 18 5 Sudoeste 19 Sudoeste 0 -- -- 70
2017-08-08 17:00:00 17.3 9 Sudoeste 17 Sudoeste 0 -- -- 80
2017-08-08 16:00:00 17.8 2 Norte 14 Norte 0.9 -- -- 84
2017-08-08 15:00:00 18.4 7 Nordeste 17 Este 0 -- -- 79
2017-08-08 14:00:00 -- 3 Noroeste 12 Sudeste 1.2 -- -- --
2017-08-08 13:00:00 20.2 3 Sudeste 10 Sudeste 0.1 -- -- 75
2017-08-08 12:00:00 18 2 Oeste 6 Sudoeste 0.1 -- -- 80
2017-08-08 11:00:00 16.4 0 Calma 6 Sur 0.3 -- -- 85
2017-08-08 10:00:00 16.3 0 Calma 6 Noroeste 0.1 -- -- 89
2017-08-08 09:00:00 16.4 0 Calma 5 Norte 0 -- -- 92
2017-08-08 08:00:00 15.5 0 Calma 13 Sudoeste 0.1 -- -- 95
2017-08-08 07:00:00 15.2 5 Sudoeste 15 Sudoeste 0.3 -- -- 92
2017-08-08 06:00:00 16 0 Calma 9 Sur 0 -- -- 96
2017-08-08 05:00:00 16.2 2 Oeste 12 Noroeste 0.1 -- -- 95
2017-08-08 04:00:00 16.3 0 Calma 6 Sur 1.2 -- -- 96
2017-08-08 03:00:00 16.5 0 Calma 8 Sur 1.3 -- -- 96
2017-08-08 02:00:00 17 0 Calma 16 Sur 5.8 -- -- 96
2017-08-08 01:00:00 17.8 0 Calma 8 Sudoeste 5.9 -- -- 95
2017-08-08 00:00:00 18.5 0 Calma 9 Norte 0.1 -- -- 92
2017-08-07 23:00:00 19.5 0 Calma 16 Norte 0 -- -- 82
2017-08-07 22:00:00 19.4 3 Sur 15 Noroeste 0 -- -- 84
2017-08-07 21:00:00 19.6 8 Sur 15 Sudoeste 0 -- -- 84
2017-08-07 20:00:00 20.9 0 Calma 13 Norte 0 -- -- 78
2017-08-07 19:00:00 21.8 6 Norte 15 Norte 0 -- -- 73
2017-08-07 18:00:00 23.6 6 Norte 14 Nordeste 0 -- -- 67
2017-08-07 17:00:00 25.2 11 Norte 21 Norte 0 -- -- 61
2017-08-07 16:00:00 27.3 5 Nordeste 18 Sudeste 0 -- -- 56
2017-08-07 15:00:00 28.4 3 Este 11 Nordeste 0 -- -- 53
2017-08-07 14:00:00 27.6 4 Sudeste 10 Sur 0 -- -- 55
2017-08-07 13:00:00 25.1 0 Calma 8 Sur 0 -- -- 56
2017-08-07 12:00:00 22.2 0 Calma 6 Noroeste 0 -- -- 65
2017-08-07 11:00:00 20.1 0 Calma 6 Noroeste 0 -- -- 73
2017-08-07 10:00:00 19.1 0 Calma 4 Noroeste 0 -- -- 73
2017-08-07 09:00:00 17.6 0 Calma 3 Este 0 -- -- 86
2017-08-07 08:00:00 15.6 0 Calma 0 Calma 0 -- -- 94
2017-08-07 07:00:00 15.2 0 Calma 2 Noroeste 0 -- -- 94
2017-08-07 06:00:00 15.1 0 Calma 0 Calma 0 -- -- 95
2017-08-07 05:00:00 14.9 0 Calma 2 Nordeste 0 -- -- 95
2017-08-07 04:00:00 15 0 Calma 3 Noroeste 0 -- -- 94
2017-08-07 03:00:00 14.8 0 Calma 3 Norte 0 -- -- 95
2017-08-07 02:00:00 14.8 0 Calma 2 Noroeste 0 -- -- 93
2017-08-07 01:00:00 15.1 0 Calma 0 Calma 0 -- -- 93
2017-08-07 00:00:00 15.7 0 Calma 2 Norte 0 -- -- 90
2017-08-06 23:00:00 16.7 0 Calma 3 Norte 0 -- -- 85
2017-08-06 22:00:00 18.4 2 Nordeste 8 Nordeste 0 -- -- 74
2017-08-06 21:00:00 20.3 0 Calma 12 Norte 0 -- -- 67
2017-08-06 20:00:00 20.8 7 Norte 17 Norte 0 -- -- 64
2017-08-06 19:00:00 21.6 7 Norte 21 Norte 0 -- -- 59
2017-08-06 18:00:00 22.4 7 Nordeste 21 Nordeste 0 -- -- 49
2017-08-06 17:00:00 23.7 6 Nordeste 20 Nordeste 0 -- -- 47
2017-08-06 16:00:00 22.4 7 Nordeste 17 Nordeste 0 -- -- 48
2017-08-06 15:00:00 22.3 6 Nordeste 18 Norte 0 -- -- 46
2017-08-06 14:00:00 21.7 8 Nordeste 19 Norte 0 -- -- 45
2017-08-06 13:00:00 21.4 6 Nordeste 16 Sudeste 0 -- -- 52
2017-08-06 12:00:00 21.2 4 Nordeste 15 Sudeste 0 -- -- 52
2017-08-06 11:00:00 20.4 3 Sudeste 10 Sudeste 0 -- -- 63
2017-08-06 10:00:00 18.6 0 Calma 8 Este 0 -- -- 67
2017-08-06 09:00:00 18 0 Calma 5 Sudeste 0 -- -- 71
2017-08-06 08:00:00 16.4 0 Calma 6 Norte 0 -- -- 85
2017-08-06 07:00:00 16.2 0 Calma 4 Sudeste 0 -- -- 81
2017-08-06 06:00:00 16.5 0 Calma 12 Nordeste 0 -- -- 76
2017-08-06 05:00:00 17 0 Calma 11 Nordeste 0 -- -- 75
2017-08-06 04:00:00 17.4 0 Calma 13 Nordeste 0 -- -- 70
2017-08-06 03:00:00 17.6 5 Nordeste 14 Nordeste 0 -- -- 70
2017-08-06 02:00:00 17.4 2 Este 10 Este 0 -- -- 75
2017-08-06 01:00:00 17.6 0 Calma 15 Noroeste 0 -- -- 82
2017-08-06 00:00:00 17.8 3 Norte 15 Noroeste 0 -- -- 86
2017-08-05 23:00:00 18.1 0 Calma 5 Sur 0.1 -- -- 88
2017-08-05 22:00:00 18.6 0 Calma 5 Oeste 0 -- -- 79
2017-08-05 21:00:00 19.1 3 Noroeste 8 Norte 0 -- -- 73
2017-08-05 20:00:00 19.8 0 Calma 10 Noroeste 0 -- -- 67
2017-08-05 19:00:00 20 2 Nordeste 8 Nordeste 0 -- -- 67
2017-08-05 18:00:00 19.9 3 Norte 19 Noroeste 0 -- -- 71
2017-08-05 17:00:00 19.8 5 Norte 26 Norte 0 -- -- 73
2017-08-05 16:00:00 19.3 12 Norte 28 Norte 0 -- -- 76
2017-08-05 15:00:00 20.5 7 Norte 20 Norte 0 -- -- 77
2017-08-05 14:00:00 21.3 4 Nordeste 19 Nordeste 0 -- -- 77
2017-08-05 13:00:00 22.3 0 Calma 15 Norte 0 -- -- 82
2017-08-05 12:00:00 22.3 5 Norte 13 Norte 0 -- -- 80
2017-08-05 11:00:00 21.9 3 Noroeste 5 Norte 0 -- -- 85
2017-08-05 10:00:00 21.4 0 Calma 4 Noroeste 0 -- -- 94
2017-08-05 09:00:00 21 0 Calma 4 Norte 0.1 -- -- 96
2017-08-05 08:00:00 20.5 0 Calma 2 Noroeste 0.1 -- -- 94
2017-08-05 07:00:00 20.6 0 Calma 2 Norte 0 -- -- 92
2017-08-05 06:00:00 20.5 0 Calma 4 Sur 0 -- -- 92
2017-08-05 05:00:00 20.5 0 Calma 4 Noroeste 0 -- -- 92
2017-08-05 04:00:00 20.4 0 Calma 3 Norte 0 -- -- 92
2017-08-05 03:00:00 20.3 0 Calma 3 Noroeste 0 -- -- 93
2017-08-05 02:00:00 20.1 0 Calma 2 Noroeste 0 -- -- 93
2017-08-05 01:00:00 19.7 0 Calma 3 Sudeste 0 -- -- 92
2017-08-05 00:00:00 20.2 0 Calma 3 Noroeste 0 -- -- 89
2017-08-04 23:00:00 21.3 0 Calma 5 Sur 0 -- -- 85
2017-08-04 22:00:00 22.9 0 Calma 12 Nordeste 0 -- -- 75
2017-08-04 21:00:00 24.4 2 Este 10 Noroeste 0 -- -- 67
2017-08-04 20:00:00 26.9 3 Noroeste 17 Norte 0 -- -- 54
2017-08-04 19:00:00 28 8 Norte 19 Norte 0 -- -- 51
2017-08-04 18:00:00 29 8 Nordeste 19 Noroeste 0 -- -- 49
2017-08-04 17:00:00 29.5 12 Norte 21 Noroeste 0 -- -- 48
2017-08-04 16:00:00 30.1 8 Norte 24 Noroeste 0 -- -- 47
2017-08-04 15:00:00 30.6 8 Norte 19 Noroeste 0 -- -- 46
2017-08-04 14:00:00 29.7 3 Nordeste 12 Norte 0 -- -- 48
2017-08-04 13:00:00 28.5 3 Nordeste 10 Sudeste 0 -- -- 50
2017-08-04 12:00:00 26.9 3 Este 7 Noroeste 0 -- -- 56
2017-08-04 11:00:00 24.7 0 Calma 6 Nordeste 0 -- -- 65
2017-08-04 10:00:00 21.5 0 Calma 5 Sudoeste 0 -- -- 81
2017-08-04 09:00:00 18.9 0 Calma 4 Noroeste 0 -- -- 92
2017-08-04 08:00:00 17.5 0 Calma 3 Sudeste 0 -- -- 96
2017-08-04 07:00:00 16.6 0 Calma 2 Noroeste 0 -- -- 96
2017-08-04 06:00:00 17.3 0 Calma 0 Calma 0 -- -- 95
2017-08-04 05:00:00 17.7 0 Calma 3 Noroeste 0 -- -- 95
2017-08-04 04:00:00 18 0 Calma 3 Sudeste 0 -- -- 93
2017-08-04 03:00:00 19 0 Calma 2 Sudoeste 0 -- -- 89
2017-08-04 02:00:00 20.8 0 Calma 5 Sudeste 0 -- -- 85
2017-08-04 01:00:00 21.2 0 Calma 5 Sudeste 0 -- -- 83
2017-08-04 00:00:00 21.4 0 Calma 6 Sudeste 0 -- -- 81
2017-08-03 23:00:00 21.5 0 Calma 8 Sudeste 0 -- -- 79
2017-08-03 22:00:00 22.3 2 Este 11 Nordeste 0 -- -- 74
2017-08-03 21:00:00 24.2 3 Nordeste 9 Nordeste 0 -- -- 69
2017-08-03 20:00:00 25.9 5 Nordeste 17 Nordeste 0 -- -- 65
2017-08-03 19:00:00 27.7 4 Nordeste 15 Norte 0 -- -- 60
2017-08-03 18:00:00 28.1 6 Norte 17 Noroeste 0 -- -- 59
2017-08-03 17:00:00 28.3 5 Norte 18 Este 0 -- -- 59
2017-08-03 16:00:00 28.5 10 Nordeste 17 Este 0 -- -- 55
2017-08-03 15:00:00 30.2 3 Sudeste 11 Este 0 -- -- 55
2017-08-03 14:00:00 28.1 2 Sur 10 Sudeste 0 -- -- 58
2017-08-03 13:00:00 25.9 0 Calma 10 Oeste 0 -- -- 61
2017-08-03 12:00:00 26 3 Sudoeste 11 Sur 0 -- -- 62
2017-08-03 11:00:00 22.8 0 Calma 10 Noroeste 0 -- -- 75
2017-08-03 10:00:00 21 0 Calma 4 Norte 0 -- -- 84
2017-08-03 09:00:00 20.1 0 Calma 4 Sur 0 -- -- 89
2017-08-03 08:00:00 19.7 2 Sudoeste 5 Noroeste 0 -- -- 92
2017-08-03 07:00:00 19.6 0 Calma -- -- -- -- -- 92
2017-08-03 06:00:00 19.9 0 Calma 8 Noroeste 0 -- -- 89
2017-08-03 05:00:00 20.1 0 Calma 4 Noroeste 0 -- -- 88
2017-08-03 04:00:00 20.2 0 Calma 3 Noroeste 0 -- -- 87
2017-08-03 03:00:00 20.1 3 Sur 5 Sur 0 -- -- 87
2017-08-03 02:00:00 20.3 0 Calma 3 Nordeste 0 -- -- 86
2017-08-03 01:00:00 20.6 0 Calma 5 Nordeste 0 -- -- 81
2017-08-03 00:00:00 20.6 0 Calma 5 Nordeste 0 -- -- 80
2017-08-02 23:00:00 20.9 0 Calma 8 Este 0 -- -- 78
2017-08-02 22:00:00 21.8 2 Nordeste 15 Sudeste 0 -- -- 71
2017-08-02 21:00:00 22.8 2 Este 15 Nordeste 0 -- -- 67
2017-08-02 20:00:00 25.7 4 Nordeste 13 Nordeste 0 -- -- 67
2017-08-02 19:00:00 27.2 2 Este 15 Norte 0 -- -- 66
2017-08-02 18:00:00 28.3 8 Norte 18 Norte 0 -- -- 61
2017-08-02 17:00:00 27.5 3 Este 14 Este 0 -- -- 62
2017-08-02 16:00:00 29.6 4 Este 15 Nordeste 0 -- -- 55
2017-08-02 15:00:00 28.8 4 Este 17 Nordeste 0 -- -- 59
2017-08-02 14:00:00 28.6 5 Nordeste 13 Nordeste 0 -- -- 55
2017-08-02 13:00:00 27.4 2 Oeste 8 Noroeste 0 -- -- 58
2017-08-02 12:00:00 24.7 0 Calma 5 Norte 0 -- -- 62
2017-08-02 11:00:00 22.8 0 Calma 5 Norte 0 -- -- 67
2017-08-02 10:00:00 20.8 0 Calma 5 Este 0 -- -- 77
2017-08-02 09:00:00 18.5 0 Calma 3 Nordeste 0 -- -- 86
2017-08-02 08:00:00 15.9 0 Calma 0 Calma 0 -- -- 96
2017-08-02 07:00:00 14.9 0 Calma 2 Sudoeste 0 -- -- 95
2017-08-02 06:00:00 15.7 0 Calma 0 Calma 0 -- -- 93
2017-08-02 05:00:00 16.9 0 Calma 0 Calma 0 -- -- 93
2017-08-02 04:00:00 18.3 0 Calma -- -- 0 -- -- 92
2017-08-02 03:00:00 18.4 0 Calma 0 Calma 0 -- -- 90
2017-08-02 02:00:00 18.6 0 Calma 2 Noroeste 0 -- -- 89
2017-08-02 01:00:00 18.7 0 Calma 2 Noroeste 0 -- -- 88
2017-08-02 00:00:00 19 0 Calma 4 Sudeste 0 -- -- 86
2017-08-01 23:00:00 19.1 0 Calma 7 Sudeste 0 -- -- 83
2017-08-01 22:00:00 19.4 0 Calma 6 Sudeste 0 -- -- 82
2017-08-01 21:00:00 20 3 Sudeste 7 Sudeste 0 -- -- 80
2017-08-01 20:00:00 20.6 0 Calma 4 Norte 0 -- -- 78
2017-08-01 19:00:00 21 0 Calma 5 Noroeste 0 -- -- 77
2017-08-01 18:00:00 21.1 0 Calma 6 Sudeste 0 -- -- 73
2017-08-01 17:00:00 21.6 2 Sur 10 Sudeste 0 -- -- 71
2017-08-01 16:00:00 21.4 2 Este 9 Este 0 -- -- 71
2017-08-01 15:00:00 21.5 0 Calma 5 Sudoeste 0 -- -- 71
2017-08-01 14:00:00 21 0 Calma 6 Oeste 0 -- -- 75
2017-08-01 13:00:00 20.3 0 Calma 5 Sudoeste 0 -- -- 77
2017-08-01 12:00:00 19.9 3 Sudoeste 6 Sudoeste 0 -- -- 82
2017-08-01 11:00:00 20 0 Calma 3 Noroeste 0 -- -- 82
2017-08-01 10:00:00 19.3 0 Calma 3 Sur 0 -- -- 87
2017-08-01 09:00:00 18.4 0 Calma 3 Sudeste 0 -- -- 93
2017-08-01 08:00:00 17.8 0 Calma 4 Sur 0 -- -- 95
2017-08-01 07:00:00 17.6 0 Calma 3 Sudoeste 0 -- -- 94
2017-08-01 06:00:00 17.7 0 Calma 3 Norte 0 -- -- 93
2017-08-01 05:00:00 17.8 0 Calma 4 Oeste 0 -- -- 93
2017-08-01 04:00:00 18.2 0 Calma 4 Nordeste 0 -- -- 90
2017-08-01 03:00:00 18.3 0 Calma 3 Noroeste 0 -- -- 89
2017-08-01 02:00:00 18.4 0 Calma 3 Noroeste 0 -- -- 88
2017-08-01 01:00:00 18.6 0 Calma 4 Sudoeste 0 -- -- 86
2017-08-01 00:00:00 18.9 0 Calma 7 Sudoeste 0 -- -- 84
2017-07-31 23:00:00 19.1 0 Calma 5 Sudoeste 0 -- -- 82
2017-07-31 22:00:00 19.5 0 Calma 6 Noroeste 0 -- -- 80
2017-07-31 21:00:00 20.2 2 Norte 10 Noroeste 0 -- -- 73
2017-07-31 20:00:00 20.6 4 Norte 12 Norte 0 -- -- 74
2017-07-31 19:00:00 21.2 2 Norte 12 Norte 0 -- -- 73
2017-07-31 18:00:00 21.7 3 Nordeste 14 Norte 0 -- -- 72
2017-07-31 17:00:00 22.4 7 Norte 13 Noroeste 0 -- -- 66
2017-07-31 16:00:00 23.2 5 Noroeste 10 Norte 0 -- -- 62
2017-07-31 15:00:00 23.5 4 Norte 12 Norte 0 -- -- 60
2017-07-31 14:00:00 23.9 0 Calma 9 Sudeste 0 -- -- 60
2017-07-31 13:00:00 22.9 0 Calma 10 Nordeste 0 -- -- 64
2017-07-31 12:00:00 21.8 0 Calma 6 Sudeste 0 -- -- 67
2017-07-31 11:00:00 19.8 0 Calma 4 Nordeste 0 -- -- 77
2017-07-31 10:00:00 18.8 0 Calma 5 Noroeste 0 -- -- 85
2017-07-31 09:00:00 18 0 Calma 3 Noroeste 0 -- -- 89
2017-07-31 08:00:00 16.3 0 Calma 3 Sudoeste 0 -- -- 95
2017-07-31 07:00:00 16.5 0 Calma 3 Sur 0 -- -- 95
2017-07-31 06:00:00 17 0 Calma 3 Norte 0 -- -- 96
2017-07-31 05:00:00 17.3 0 Calma 0 Calma 0 -- -- 96
2017-07-31 04:00:00 17.5 0 Calma 4 Noroeste 0 -- -- 96
2017-07-31 03:00:00 17.5 0 Calma 5 Sudoeste 0 -- -- 96
2017-07-31 02:00:00 17.4 2 Sudoeste 4 Sudoeste 0.3 -- -- 96
2017-07-31 01:00:00 17.7 0 Calma 3 Sur 0 -- -- 94
2017-07-31 00:00:00 18 0 Calma 6 Sur 0.1 -- -- 94
2017-07-30 23:00:00 18.1 3 Sur 7 Sur 0 -- -- 93
2017-07-30 22:00:00 18.4 3 Sur 7 Sudoeste 0.1 -- -- 93
2017-07-30 21:00:00 18.9 0 Calma 11 Sur 0 -- -- 92
2017-07-30 20:00:00 19.4 4 Sur 9 Sudoeste 0.1 -- -- 91
2017-07-30 19:00:00 20.7 0 Calma 19 Norte 0 -- -- 84
2017-07-30 18:00:00 21.4 6 Norte 16 Este 0 -- -- 75
2017-07-30 17:00:00 22.5 9 Noroeste 21 Noroeste 0 -- -- 74
2017-07-30 16:00:00 24.2 7 Norte 15 Norte 0 -- -- 68
2017-07-30 15:00:00 24.9 9 Norte 18 Norte 0 -- -- 65
2017-07-30 14:00:00 25.7 6 Norte 15 Nordeste 0 -- -- 62
2017-07-30 13:00:00 26.1 4 Este 15 Sudeste 0 -- -- 57
2017-07-30 12:00:00 25.7 3 Norte 11 Nordeste 0 -- -- 56
2017-07-30 11:00:00 25.1 2 Sur 6 Sur 0 -- -- 61
2017-07-30 10:00:00 23.1 2 Sur 6 Norte 0 -- -- 74
2017-07-30 09:00:00 20.6 0 Calma 3 Sudoeste 0 -- -- 92
2017-07-30 08:00:00 18.7 0 Calma 5 Oeste 0 -- -- 96
2017-07-30 07:00:00 18.4 0 Calma 3 Noroeste 0 -- -- 95
2017-07-30 06:00:00 19.3 0 Calma 5 Norte 0 -- -- 93
2017-07-30 05:00:00 20.8 0 Calma 3 Noroeste 0 -- -- 91
2017-07-30 04:00:00 21.4 0 Calma 4 Noroeste 0 -- -- 90
2017-07-30 03:00:00 21.5 0 Calma 5 Noroeste 0 -- -- 90
2017-07-30 02:00:00 21.6 0 Calma 5 Noroeste 0 -- -- 90
2017-07-30 01:00:00 21.6 3 Sudeste 6 Sudeste 0 -- -- 90
2017-07-30 00:00:00 21.6 0 Calma 0 Calma 0 -- -- 92
2017-07-29 23:00:00 21.3 0 Calma 2 Sudeste 0 -- -- 91
2017-07-29 22:00:00 22.1 0 Calma 2 Noroeste 0 -- -- 85
2017-07-29 21:00:00 24 0 Calma 6 Nordeste 0 -- -- 77
2017-07-29 20:00:00 26.3 0 Calma 8 Nordeste 0 -- -- 65
2017-07-29 19:00:00 27 3 Este 13 Sudeste 0 -- -- 62
2017-07-29 18:00:00 27 3 Este 14 Este 0 -- -- 66
2017-07-29 17:00:00 27.8 4 Norte 13 Norte 0 -- -- 63
2017-07-29 16:00:00 28.6 6 Norte 15 Norte 0 -- -- 60
2017-07-29 15:00:00 30.1 4 Este 12 Nordeste 0 -- -- 54
2017-07-29 14:00:00 29 2 Sur 9 Sudeste 0 -- -- 56
2017-07-29 13:00:00 27.1 2 Este 8 Nordeste 0 -- -- 56
2017-07-29 12:00:00 25.8 0 Calma 6 Nordeste 0 -- -- 62
2017-07-29 11:00:00 23.9 0 Calma 6 Sur 0 -- -- 69
2017-07-29 10:00:00 21.9 2 Nordeste 8 Sur 0 -- -- 75
2017-07-29 09:00:00 19.4 4 Oeste 10 Noroeste 0 -- -- 88
2017-07-29 08:00:00 17.9 2 Sudeste 4 Sudeste 0 -- -- 92
2017-07-29 07:00:00 17.8 0 Calma 0 Calma 0 -- -- 95
2017-07-29 06:00:00 17.9 0 Calma 6 Norte 0 -- -- 95
2017-07-29 05:00:00 17.9 0 Calma 3 Este 0 -- -- 95
2017-07-29 04:00:00 17.8 0 Calma 3 Noroeste 0 -- -- 95
2017-07-29 03:00:00 17.9 0 Calma 2 Este 0 -- -- 94
2017-07-29 02:00:00 17.7 0 Calma 4 Noroeste 0 -- -- 94
2017-07-29 01:00:00 18.5 0 Calma 5 Noroeste 0 -- -- 93
2017-07-29 00:00:00 19.1 0 Calma 3 Norte 0 -- -- 93
2017-07-28 23:00:00 18.7 0 Calma 2 Sudoeste 0 -- -- 91
2017-07-28 22:00:00 20.3 0 Calma 3 Noroeste 0 -- -- 85
2017-07-28 21:00:00 22.4 2 Este 13 Este 0 -- -- 75
2017-07-28 20:00:00 24.1 5 Nordeste 14 Nordeste 0 -- -- 67
2017-07-28 19:00:00 24.7 5 Nordeste 13 Nordeste 0 -- -- 66
2017-07-28 18:00:00 25.1 7 Norte 14 Norte 0 -- -- 64
2017-07-28 17:00:00 25.2 4 Nordeste 15 Nordeste 0 -- -- 65
2017-07-28 16:00:00 24.9 9 Norte 17 Norte 0 -- -- 64
2017-07-28 15:00:00 25.2 3 Este 9 Nordeste 0.1 -- -- 65
2017-07-28 14:00:00 23.5 3 Sur 6 Sudoeste 0 -- -- 74
2017-07-28 13:00:00 22.5 2 Este 8 Nordeste 0 -- -- 75
2017-07-28 12:00:00 21.1 2 Nordeste 7 Sudeste 0 -- -- 81
2017-07-28 11:00:00 20.9 3 Sudeste 8 Sudeste 0 -- -- 87
2017-07-28 10:00:00 20.4 0 Calma 5 Sudeste 0 -- -- 92
2017-07-28 09:00:00 19.9 0 Calma 4 Sur 0 -- -- 94
2017-07-28 08:00:00 19.9 0 Calma 2 Noroeste 0 -- -- 94
2017-07-28 07:00:00 19.8 0 Calma 2 Noroeste 0 -- -- 94
2017-07-28 06:00:00 19.9 0 Calma 3 Nordeste 0.1 -- -- 93
2017-07-28 05:00:00 20 0 Calma 0 Calma 0 -- -- 92
2017-07-28 04:00:00 20 0 Calma 2 Sudeste 0 -- -- 91
2017-07-28 03:00:00 20.1 0 Calma 2 Norte 0 -- -- 89
2017-07-28 02:00:00 20.2 0 Calma 4 Sur 0 -- -- 89
2017-07-28 01:00:00 20.2 0 Calma 4 Noroeste 0 -- -- 88
2017-07-28 00:00:00 21 0 Calma 8 Sudeste 0 -- -- 84
2017-07-27 23:00:00 21.5 0 Calma 8 Nordeste 0 -- -- 78
2017-07-27 22:00:00 22.3 0 Calma 9 Norte 0 -- -- 73
2017-07-27 21:00:00 23.3 5 Norte 14 Norte 0 -- -- 65
2017-07-27 20:00:00 24.8 9 Norte 17 Norte 0 -- -- 55
2017-07-27 19:00:00 26.1 6 Norte 15 Nordeste 0 -- -- 51
2017-07-27 18:00:00 27.2 6 Norte 20 Nordeste 0 -- -- 49
2017-07-27 17:00:00 27.8 7 Nordeste 19 Norte 0 -- -- 48
2017-07-27 16:00:00 28.8 9 Norte 18 Noroeste 0 -- -- 45
2017-07-27 15:00:00 28.6 5 Norte 14 Norte 0 -- -- 43
2017-07-27 14:00:00 27.8 5 Nordeste 12 Nordeste 0 -- -- 43
2017-07-27 13:00:00 26.1 0 Calma 6 Noroeste 0 -- -- 41
2017-07-27 12:00:00 23.1 0 Calma 6 Noroeste 0 -- -- 62
2017-07-27 11:00:00 19.9 2 Norte 8 Norte 0 -- -- 77
2017-07-27 10:00:00 16.7 2 Noroeste 5 Nordeste 0 -- -- 90
2017-07-27 09:00:00 16.5 0 Calma 4 Oeste 0 -- -- 90
2017-07-27 08:00:00 15 0 Calma 4 Oeste 0 -- -- 89
2017-07-27 07:00:00 15.2 0 Calma 8 Sudoeste 0 -- -- 92
2017-07-27 06:00:00 15.4 0 Calma 6 Sudoeste 0 -- -- 89
2017-07-27 05:00:00 15.8 0 Calma 7 Sudoeste 0 -- -- 93
2017-07-27 04:00:00 16.2 0 Calma 5 Sudoeste 0 -- -- 96
2017-07-27 03:00:00 16.5 0 Calma 0 Calma 0 -- -- 96
2017-07-27 02:00:00 15.9 0 Calma 3 Noroeste 0 -- -- 96
2017-07-27 01:00:00 15.6 0 Calma 3 Noroeste 0 -- -- 93
2017-07-27 00:00:00 16.7 0 Calma 2 Noroeste 0 -- -- 92
2017-07-26 23:00:00 17.8 0 Calma 3 Sudoeste 0 -- -- 89
2017-07-26 22:00:00 19.8 0 Calma 8 Este 0 -- -- 83
2017-07-26 21:00:00 22.3 0 Calma 10 Este 0 -- -- 68
2017-07-26 20:00:00 23.9 0 Calma 12 Sudeste 0 -- -- 61
2017-07-26 19:00:00 25 3 Nordeste 9 Este 0 -- -- 56
2017-07-26 18:00:00 26 2 Nordeste 12 Nordeste 0 -- -- 54
2017-07-26 17:00:00 25.5 0 Calma 8 Norte 0 -- -- 52
2017-07-26 16:00:00 26.1 2 Sudeste 11 Sudoeste 0 -- -- 52
2017-07-26 15:00:00 24.1 3 Nordeste 9 Nordeste 0 -- -- 53
2017-07-26 14:00:00 23.9 2 Norte 13 Noroeste 0 -- -- 52
2017-07-26 13:00:00 23.8 3 Noroeste 10 Noroeste 0 -- -- 55
2017-07-26 12:00:00 22.2 2 Oeste 7 Noroeste 0 -- -- 62
2017-07-26 11:00:00 20.9 0 Calma 6 Nordeste 0 -- -- 64
2017-07-26 10:00:00 18.6 0 Calma 5 Noroeste 0 -- -- 78
2017-07-26 09:00:00 16.1 0 Calma 3 Norte 0 -- -- 92
2017-07-26 08:00:00 15.4 0 Calma 2 Sur 0 -- -- 96
2017-07-26 07:00:00 15.1 0 Calma 0 Calma 0 -- -- 96
2017-07-26 06:00:00 15.1 0 Calma 4 Noroeste 0 -- -- 96
2017-07-26 05:00:00 15 0 Calma 0 Calma 0 -- -- 96
2017-07-26 04:00:00 15 0 Calma 4 Norte 0 -- -- 96
2017-07-26 03:00:00 15.4 0 Calma 3 Noroeste 0 -- -- 96
2017-07-26 02:00:00 15.9 0 Calma 3 Norte 0 -- -- 95
2017-07-26 01:00:00 16.1 0 Calma 4 Sudoeste 0 -- -- 94
2017-07-26 00:00:00 16.4 0 Calma 3 Sudeste 0 -- -- 92
2017-07-25 23:00:00 16.6 0 Calma 6 Noroeste 0.1 -- -- 92
2017-07-25 22:00:00 17.1 0 Calma 6 Oeste 0 -- -- 86
2017-07-25 21:00:00 17.9 0 Calma 13 Noroeste 0 -- -- 80
2017-07-25 20:00:00 18.5 0 Calma 15 Norte 0 -- -- 75
2017-07-25 19:00:00 18.9 6 Norte 15 Norte 0 -- -- 68
2017-07-25 18:00:00 19.1 4 Norte 14 Norte 0 -- -- 71
2017-07-25 17:00:00 19.1 0 Calma 7 Noroeste 0 -- -- 77
2017-07-25 16:00:00 19.1 2 Sur 8 Sur 0.1 -- -- 82
2017-07-25 15:00:00 18.4 2 Sudeste 15 Nordeste 0 -- -- 83
2017-07-25 14:00:00 18.3 0 Calma 8 Sur 0 -- -- 85
2017-07-25 13:00:00 17.7 2 Sur 9 Sudoeste 0 -- -- 91
2017-07-25 12:00:00 17.8 0 Calma 7 Sudoeste 0.1 -- -- 91
2017-07-25 11:00:00 16.6 0 Calma 3 Sudoeste 0.5 -- -- 94
2017-07-25 10:00:00 16 0 Calma 4 Nordeste 0.3 -- -- 96
2017-07-25 09:00:00 15.9 0 Calma 3 Sur 0.1 -- -- 96
2017-07-25 08:00:00 15.6 0 Calma 4 Norte 0.2 -- -- 96
2017-07-25 07:00:00 15.6 0 Calma 3 Sur 0.6 -- -- 96
2017-07-25 06:00:00 15.6 0 Calma 2 Noroeste 0.4 -- -- 96
2017-07-25 05:00:00 15.5 0 Calma 4 Noroeste 0 -- -- 96
2017-07-25 04:00:00 15.5 0 Calma 5 Nordeste 0 -- -- 96
2017-07-25 03:00:00 16.1 0 Calma 13 Norte 0 -- -- 96
2017-07-25 02:00:00 16.3 0 Calma 5 Sur 0.1 -- -- 97
2017-07-25 01:00:00 16.4 0 Calma 3 Sur 0 -- -- 96
2017-07-25 00:00:00 16.6 0 Calma 6 Norte 0.3 -- -- 96
2017-07-24 23:00:00 16.6 0 Calma 6 Sur 0.1 -- -- 95
2017-07-24 22:00:00 16.9 0 Calma 12 Nordeste 0.2 -- -- 94
2017-07-24 21:00:00 17.3 0 Calma 8 Sudeste 0.6 -- -- 93
2017-07-24 20:00:00 18 3 Sudeste 8 Sudeste 0 -- -- 90
2017-07-24 19:00:00 18.9 0 Calma 8 Noroeste 0.8 -- -- 89
2017-07-24 18:00:00 19.1 3 Noroeste 12 Noroeste 0.1 -- -- 81
2017-07-24 17:00:00 19.7 0 Calma 12 Oeste 0.2 -- -- 80
2017-07-24 16:00:00 20 5 Oeste 19 Noroeste 0.7 -- -- 77
2017-07-24 15:00:00 19.6 3 Oeste 14 Noroeste 0.8 -- -- 81
2017-07-24 14:00:00 19.9 0 Calma 15 Sur 1 -- -- 82
2017-07-24 13:00:00 21.4 2 Noroeste 17 Sudoeste 0.5 -- -- 75
2017-07-24 12:00:00 18.9 0 Calma 10 Noroeste 1.1 -- -- 89
2017-07-24 11:00:00 19.1 3 Sudoeste 15 Sudoeste 0.1 -- -- 85
2017-07-24 10:00:00 18.1 3 Noroeste 9 Sudoeste 0.1 -- -- 89
2017-07-24 09:00:00 18.1 0 Calma 27 Noroeste 0 -- -- 89
2017-07-24 08:00:00 17.4 0 Calma 4 Sur 1.4 -- -- 97
2017-07-24 07:00:00 17.1 0 Calma 5 Sur 2.3 -- -- 96
2017-07-24 06:00:00 16.9 0 Calma 3 Noroeste 0.1 -- -- 96
2017-07-24 05:00:00 17.1 0 Calma 7 Noroeste 0.3 -- -- 95
2017-07-24 04:00:00 17.1 3 Sur 4 Sur 0.2 -- -- 94
2017-07-24 03:00:00 17.3 0 Calma 5 Noroeste 0 -- -- 91
2017-07-24 02:00:00 17.3 0 Calma 4 Noroeste 0 -- -- 91
2017-07-24 01:00:00 17.2 0 Calma 4 Sudeste 0 -- -- 91
2017-07-24 00:00:00 17.1 0 Calma 3 Sudeste 0 -- -- 91
2017-07-23 23:00:00 17 0 Calma 3 Nordeste 0 -- -- 89
2017-07-23 22:00:00 17.4 0 Calma 4 Norte 0 -- -- 85
2017-07-23 21:00:00 18.9 0 Calma 6 Este 0 -- -- 78
2017-07-23 20:00:00 21 0 Calma 17 Nordeste 0 -- -- 63
2017-07-23 19:00:00 21.8 10 Norte 20 Norte 0 -- -- 59
2017-07-23 18:00:00 21.8 6 Nordeste 14 Nordeste 0 -- -- 61
2017-07-23 17:00:00 21.8 4 Este 17 Sudeste 0 -- -- 62
2017-07-23 16:00:00 21.7 5 Nordeste 12 Nordeste 0 -- -- 62
2017-07-23 15:00:00 21.6 4 Noroeste 8 Sudeste 0 -- -- 59
2017-07-23 14:00:00 21.4 5 Sudeste 12 Sudeste 0 -- -- 64
2017-07-23 13:00:00 20.6 3 Sudeste 9 Sudeste 0 -- -- 66
2017-07-23 12:00:00 19.3 4 Sudeste 9 Sudeste 0 -- -- 71
2017-07-23 11:00:00 19 0 Calma 0 Calma 0 -- -- 78
2017-07-23 10:00:00 18.4 0 Calma -- -- 0 -- -- 84
2017-07-23 09:00:00 17.7 0 Calma -- -- 0 -- -- 90
2017-07-23 08:00:00 16.7 0 Calma -- -- 0 -- -- 95
2017-07-23 07:00:00 16.3 0 Calma -- -- 0 -- -- 95
2017-07-23 06:00:00 16.4 0 Calma -- -- 0 -- -- 95
2017-07-23 05:00:00 16.5 0 Calma 0 Calma 0 -- -- 95
2017-07-23 04:00:00 16.6 0 Calma 0 Calma 0 -- -- 95
2017-07-23 03:00:00 16.7 0 Calma 3 Sudoeste 0 -- -- 95
2017-07-23 02:00:00 16.7 0 Calma 3 Sur 0 -- -- 95
2017-07-23 01:00:00 16.7 0 Calma 5 Sudoeste 0 -- -- 93
2017-07-23 00:00:00 16.9 0 Calma 6 Sudeste 0 -- -- 93
2017-07-22 23:00:00 17.4 2 Sur 6 Sur 0.7 -- -- 92
2017-07-22 22:00:00 18.1 0 Calma 8 Sur 0 -- -- 90
2017-07-22 21:00:00 18.8 2 Sudeste 10 Norte 0.1 -- -- 84
2017-07-22 20:00:00 20 5 Nordeste 14 Nordeste 0 -- -- 68
2017-07-22 19:00:00 21 8 Nordeste 20 Norte 0 -- -- 63
2017-07-22 18:00:00 21.7 9 Norte 19 Norte 0 -- -- 59
2017-07-22 17:00:00 22.8 9 Norte 18 Norte 0 -- -- 55
2017-07-22 16:00:00 22.8 8 Norte 18 Norte 0 -- -- 55
2017-07-22 15:00:00 23.3 8 Norte 15 Nordeste 0 -- -- 54
2017-07-22 14:00:00 24.4 2 Sudeste 8 Nordeste 0 -- -- 49
2017-07-22 13:00:00 21.7 2 Nordeste 7 Nordeste 0 -- -- 58
2017-07-22 12:00:00 19.5 0 Calma 3 Nordeste 0 -- -- 71
2017-07-22 11:00:00 18.3 0 Calma 4 Nordeste 0 -- -- 75
2017-07-22 10:00:00 17.2 0 Calma 3 Nordeste 0 -- -- 84
2017-07-22 09:00:00 16.1 0 Calma 3 Nordeste 0 -- -- 92
2017-07-22 08:00:00 15.2 0 Calma 4 Noroeste 0 -- -- 97
2017-07-22 07:00:00 14.7 0 Calma 0 Calma 0 -- -- 97
2017-07-22 06:00:00 14.7 0 Calma 3 Nordeste 0 -- -- 97
2017-07-22 05:00:00 14.7 0 Calma 5 Noroeste 0 -- -- 97
2017-07-22 04:00:00 14.5 0 Calma 5 Norte 0 -- -- 97
2017-07-22 03:00:00 14.3 0 Calma 3 Noroeste 0 -- -- 97
2017-07-22 02:00:00 14.2 0 Calma 2 Noroeste 0 -- -- 95
2017-07-22 01:00:00 14.5 0 Calma 3 Noroeste 0 -- -- 93
2017-07-22 00:00:00 15.6 0 Calma 2 Noroeste 0 -- -- 91
2017-07-21 23:00:00 17.2 0 Calma 4 Noroeste 0 -- -- 89
2017-07-21 22:00:00 18.2 0 Calma 0 Calma 0 -- -- 85
2017-07-21 21:00:00 18.8 0 Calma 5 Este 0 -- -- 78
2017-07-21 20:00:00 18.8 0 Calma 7 Sudeste 0 -- -- 74
2017-07-21 19:00:00 19 2 Sudeste 10 Sudeste 0 -- -- 78
2017-07-21 18:00:00 18.4 0 Calma 11 Nordeste 0 -- -- 80
2017-07-21 17:00:00 19 5 Noroeste 13 Noroeste 0 -- -- 77
2017-07-21 16:00:00 19.4 3 Nordeste 8 Este 0 -- -- 75
2017-07-21 15:00:00 19.4 4 Nordeste 8 Nordeste 0 -- -- 74
2017-07-21 14:00:00 19.3 4 Noroeste 7 Noroeste 0 -- -- 74
2017-07-21 13:00:00 18.8 4 Sudoeste 13 Sur 0 -- -- 82
2017-07-21 12:00:00 18.2 0 Calma 10 Sudoeste 0 -- -- 84
2017-07-21 11:00:00 17.4 0 Calma 5 Sur 0 -- -- 91
2017-07-21 10:00:00 16.7 0 Calma 4 Noroeste 0 -- -- 95
2017-07-21 09:00:00 16.3 0 Calma 4 Noroeste 0 -- -- 96
2017-07-21 08:00:00 15.9 0 Calma 3 Norte 0 -- -- 96
2017-07-21 07:00:00 15.9 0 Calma 3 Noroeste 0 -- -- 96
2017-07-21 06:00:00 15.9 0 Calma 6 Nordeste 3.5 -- -- 96
2017-07-21 05:00:00 16.1 0 Calma 4 Noroeste 0 -- -- 95
2017-07-21 04:00:00 16.3 0 Calma 3 Este 0.3 -- -- 95
2017-07-21 03:00:00 -- 0 Calma 3 Noroeste 0 -- -- --
2017-07-21 02:00:00 16.2 0 Calma 0 Calma 0 -- -- 93
2017-07-21 01:00:00 16.3 0 Calma 0 Calma 0 -- -- 93
2017-07-21 00:00:00 16.3 0 Calma 2 Oeste 0 -- -- 93
2017-07-20 23:00:00 16.4 0 Calma 3 Noroeste 0 -- -- 92
2017-07-20 22:00:00 16.5 0 Calma 7 Sudoeste 0 -- -- 91
2017-07-20 21:00:00 16.7 3 Nordeste 12 Nordeste 0 -- -- 86
2017-07-20 20:00:00 17.7 0 Calma 17 Noroeste 0 -- -- 79
2017-07-20 19:00:00 17.7 10 Norte 20 Noroeste 0 -- -- 75
2017-07-20 18:00:00 18.1 9 Norte 18 Noroeste 0 -- -- 76
2017-07-20 17:00:00 18.8 5 Norte 19 Noroeste 0 -- -- 77
2017-07-20 16:00:00 19 8 Norte 15 Noroeste 0 -- -- 76
2017-07-20 15:00:00 19.5 5 Norte 14 Norte 0.3 -- -- 76
2017-07-20 14:00:00 18.8 2 Sur 10 Este 0.1 -- -- 89
2017-07-20 13:00:00 19.3 2 Sudoeste 12 Sur 0 -- -- 88
2017-07-20 12:00:00 18.5 4 Sudoeste 8 Sudoeste 0.5 -- -- 93
2017-07-20 11:00:00 18 0 Calma 5 Sur 0.6 -- -- 92
2017-07-20 10:00:00 17.6 2 Sur 6 Sur 0.1 -- -- --
2017-07-20 09:00:00 17.6 3 Sudoeste 5 Sur 0 -- -- --
2017-07-20 08:00:00 17.5 0 Calma 3 Sudeste 0 -- -- --
2017-07-20 07:00:00 17.4 0 Calma 0 Calma 0 -- -- --
2017-07-20 06:00:00 17.5 0 Calma 3 Sur 0 -- -- --
2017-07-20 05:00:00 17.4 0 Calma 4 Noroeste 0.1 -- -- --
2017-07-20 04:00:00 17.6 0 Calma 7 Sudeste 0 -- -- --
2017-07-20 03:00:00 18.1 5 Sudeste 13 Norte 0.1 -- -- --
2017-07-20 02:00:00 19.1 0 Calma 4 Noroeste 0 -- -- --
2017-07-20 01:00:00 19.3 0 Calma 3 Noroeste 0 -- -- --
2017-07-20 00:00:00 19.5 3 Noroeste 5 Noroeste 0 -- -- --
2017-07-19 23:00:00 19.6 0 Calma 3 Noroeste 0 -- -- --
2017-07-19 22:00:00 20 0 Calma 5 Sur 0 -- -- --
2017-07-19 21:00:00 20.8 0 Calma 5 Nordeste 0 -- -- --
2017-07-19 20:00:00 20.9 3 Nordeste 6 Sudoeste 0.3 -- -- --
2017-07-19 19:00:00 20.4 0 Calma 11 Sudeste 4.6 -- -- --
2017-07-19 18:00:00 20.8 0 Calma 17 Norte 0.7 -- -- --
2017-07-19 17:00:00 21.9 6 Norte 18 Norte 0 -- -- --
2017-07-19 16:00:00 24 8 Sudeste 21 Sudeste 0 -- -- --
2017-07-19 15:00:00 24.9 6 Nordeste 16 Nordeste 0 -- -- --
2017-07-19 14:00:00 26 3 Norte 13 Noroeste 0 -- -- --
2017-07-19 13:00:00 26.2 0 Calma 9 Sudeste 0 -- -- --
2017-07-19 12:00:00 24.9 0 Calma 8 Nordeste 0 -- -- --
2017-07-19 11:00:00 23.2 3 Noroeste 11 Sudeste 0 -- -- --
2017-07-19 10:00:00 21.4 2 Sur 6 Sudeste 0 -- -- --
2017-07-19 09:00:00 -- 2 Sudeste -- -- -- -- -- --
2017-07-19 08:00:00 -- -- -- -- -- -- -- -- --
2017-07-19 07:00:00 -- -- -- -- -- -- -- -- --
2017-07-19 06:00:00 -- -- -- -- -- -- -- -- --
2017-07-19 05:00:00 -- -- -- -- -- -- -- -- --
2017-07-19 04:00:00 -- -- -- -- -- -- -- -- --
2017-07-19 03:00:00 -- -- -- -- -- -- -- -- --
2017-07-19 02:00:00 -- -- -- -- -- -- -- -- --
2017-07-19 01:00:00 -- -- -- -- -- -- -- -- --
2017-07-19 00:00:00 -- -- -- -- -- -- -- -- --